sensor_id;sensor_type;location;lat;lon;timestamp;pressure;altitude;pressure_sealevel;temperature;humidity
49341;BME280;35209;51.050;13.678;2023-05-07T00:04:12;100337.31;;;9.80;100.00
49341;BME280;35209;51.050;13.678;2023-05-07T00:09:15;100343.72;;;9.68;100.00
49341;BME280;35209;51.050;13.678;2023-05-07T00:14:17;100347.19;;;9.70;100.00
49341;BME280;35209;51.050;13.678;2023-05-07T00:19:19;100339.63;;;9.56;100.00
49341;BME280;35209;51.050;13.678;2023-05-07T00:24:21;100335.13;;;9.62;100.00
49341;BME280;35209;51.050;13.678;2023-05-07T00:29:23;100344.19;;;9.48;100.00
49341;BME280;35209;51.050;13.678;2023-05-07T00:34:24;100340.28;;;9.66;100.00
49341;BME280;35209;51.050;13.678;2023-05-07T00:39:26;100348.16;;;9.65;100.00
49341;BME280;35209;51.050;13.678;2023-05-07T00:44:28;100348.47;;;9.51;100.00
49341;BME280;35209;51.050;13.678;2023-05-07T00:49:44;100336.44;;;9.42;100.00
49341;BME280;35209;51.050;13.678;2023-05-07T00:54:47;100336.09;;;9.57;100.00
49341;BME280;35209;51.050;13.678;2023-05-07T00:59:51;100342.16;;;9.59;100.00
49341;BME280;35209;51.050;13.678;2023-05-07T01:04:53;100335.94;;;9.64;100.00
49341;BME280;35209;51.050;13.678;2023-05-07T01:09:55;100335.34;;;9.52;100.00
49341;BME280;35209;51.050;13.678;2023-05-07T01:14:57;100347.44;;;9.58;100.00
49341;BME280;35209;51.050;13.678;2023-05-07T01:19:59;100342.47;;;9.84;100.00
49341;BME280;35209;51.050;13.678;2023-05-07T01:25:03;100348.69;;;9.80;100.00
49341;BME280;35209;51.050;13.678;2023-05-07T01:30:07;100347.56;;;9.53;100.00
49341;BME280;35209;51.050;13.678;2023-05-07T01:35:11;100346.16;;;9.39;100.00
49341;BME280;35209;51.050;13.678;2023-05-07T01:40:13;100346.31;;;9.31;100.00
49341;BME280;35209;51.050;13.678;2023-05-07T01:45:16;100352.16;;;9.42;100.00
49341;BME280;35209;51.050;13.678;2023-05-07T01:50:19;100356.94;;;9.65;100.00
49341;BME280;35209;51.050;13.678;2023-05-07T01:55:20;100353.41;;;9.66;100.00
49341;BME280;35209;51.050;13.678;2023-05-07T02:00:22;100349.22;;;9.56;100.00
49341;BME280;35209;51.050;13.678;2023-05-07T02:05:24;100345.16;;;9.43;100.00
49341;BME280;35209;51.050;13.678;2023-05-07T02:10:33;100348.22;;;9.63;100.00
49341;BME280;35209;51.050;13.678;2023-05-07T02:15:35;100351.63;;;9.67;100.00
49341;BME280;35209;51.050;13.678;2023-05-07T02:20:38;100363.38;;;9.50;100.00
49341;BME280;35209;51.050;13.678;2023-05-07T02:25:39;100351.91;;;9.54;100.00
49341;BME280;35209;51.050;13.678;2023-05-07T02:30:41;100366.13;;;9.83;100.00
49341;BME280;35209;51.050;13.678;2023-05-07T02:35:43;100367.44;;;9.65;100.00
49341;BME280;35209;51.050;13.678;2023-05-07T02:40:48;100365.50;;;9.72;100.00
49341;BME280;35209;51.050;13.678;2023-05-07T02:46:09;100360.56;;;9.58;100.00
49341;BME280;35209;51.050;13.678;2023-05-07T02:51:19;100361.53;;;9.54;100.00
49341;BME280;35209;51.050;13.678;2023-05-07T02:56:26;100362.53;;;9.48;100.00
49341;BME280;35209;51.050;13.678;2023-05-07T03:01:28;100364.53;;;9.37;100.00
49341;BME280;35209;51.050;13.678;2023-05-07T03:06:35;100361.28;;;9.26;100.00
49341;BME280;35209;51.050;13.678;2023-05-07T03:11:38;100355.00;;;9.33;100.00
49341;BME280;35209;51.050;13.678;2023-05-07T03:16:40;100362.91;;;9.31;100.00
49341;BME280;35209;51.050;13.678;2023-05-07T03:21:42;100370.06;;;9.23;100.00
49341;BME280;35209;51.050;13.678;2023-05-07T03:26:43;100362.19;;;9.23;100.00
49341;BME280;35209;51.050;13.678;2023-05-07T03:31:46;100371.06;;;9.16;100.00
49341;BME280;35209;51.050;13.678;2023-05-07T03:36:48;100370.41;;;9.06;100.00
49341;BME280;35209;51.050;13.678;2023-05-07T03:41:50;100374.88;;;9.01;100.00
49341;BME280;35209;51.050;13.678;2023-05-07T03:46:52;100376.69;;;8.98;100.00
49341;BME280;35209;51.050;13.678;2023-05-07T03:51:54;100376.19;;;9.24;100.00
49341;BME280;35209;51.050;13.678;2023-05-07T03:56:57;100383.31;;;9.17;100.00
49341;BME280;35209;51.050;13.678;2023-05-07T04:01:59;100390.53;;;9.07;100.00
49341;BME280;35209;51.050;13.678;2023-05-07T04:07:06;100382.97;;;8.91;100.00
49341;BME280;35209;51.050;13.678;2023-05-07T04:12:14;100388.00;;;9.01;100.00
49341;BME280;35209;51.050;13.678;2023-05-07T04:17:16;100386.09;;;9.09;100.00
49341;BME280;35209;51.050;13.678;2023-05-07T04:22:18;100389.63;;;9.07;100.00
49341;BME280;35209;51.050;13.678;2023-05-07T04:27:20;100390.66;;;9.00;100.00
49341;BME280;35209;51.050;13.678;2023-05-07T04:32:22;100400.88;;;9.14;100.00
49341;BME280;35209;51.050;13.678;2023-05-07T04:37:27;100411.53;;;9.04;100.00
49341;BME280;35209;51.050;13.678;2023-05-07T04:42:29;100421.72;;;9.21;100.00
49341;BME280;35209;51.050;13.678;2023-05-07T04:47:31;100419.28;;;9.10;100.00
49341;BME280;35209;51.050;13.678;2023-05-07T04:52:34;100431.94;;;8.89;100.00
49341;BME280;35209;51.050;13.678;2023-05-07T04:57:36;100430.84;;;9.00;100.00
49341;BME280;35209;51.050;13.678;2023-05-07T05:02:39;100445.84;;;8.92;100.00
49341;BME280;35209;51.050;13.678;2023-05-07T05:07:41;100440.66;;;8.91;100.00
49341;BME280;35209;51.050;13.678;2023-05-07T05:12:43;100435.81;;;9.14;100.00
49341;BME280;35209;51.050;13.678;2023-05-07T05:17:46;100440.03;;;9.23;100.00
49341;BME280;35209;51.050;13.678;2023-05-07T05:22:49;100438.31;;;9.20;100.00
49341;BME280;35209;51.050;13.678;2023-05-07T05:27:50;100437.59;;;9.14;100.00
49341;BME280;35209;51.050;13.678;2023-05-07T05:32:52;100452.28;;;9.22;100.00
49341;BME280;35209;51.050;13.678;2023-05-07T05:37:54;100455.00;;;9.16;100.00
49341;BME280;35209;51.050;13.678;2023-05-07T05:42:57;100457.38;;;9.30;100.00
49341;BME280;35209;51.050;13.678;2023-05-07T05:47:59;100469.50;;;9.35;100.00
49341;BME280;35209;51.050;13.678;2023-05-07T05:53:03;100467.75;;;9.36;100.00
49341;BME280;35209;51.050;13.678;2023-05-07T05:58:05;100469.75;;;9.23;100.00
49341;BME280;35209;51.050;13.678;2023-05-07T06:03:10;100475.63;;;9.36;100.00
49341;BME280;35209;51.050;13.678;2023-05-07T06:08:13;100484.41;;;9.35;100.00
49341;BME280;35209;51.050;13.678;2023-05-07T06:13:15;100497.50;;;9.35;100.00
49341;BME280;35209;51.050;13.678;2023-05-07T06:18:16;100498.19;;;9.45;100.00
49341;BME280;35209;51.050;13.678;2023-05-07T06:23:18;100504.53;;;9.34;100.00
49341;BME280;35209;51.050;13.678;2023-05-07T06:28:20;100504.72;;;9.24;100.00
49341;BME280;35209;51.050;13.678;2023-05-07T06:33:21;100501.09;;;9.29;100.00
49341;BME280;35209;51.050;13.678;2023-05-07T06:38:23;100496.34;;;9.50;99.49
49341;BME280;35209;51.050;13.678;2023-05-07T06:43:25;100506.94;;;9.45;99.99
49341;BME280;35209;51.050;13.678;2023-05-07T06:49:02;100522.53;;;9.51;100.00
49341;BME280;35209;51.050;13.678;2023-05-07T06:54:05;100514.75;;;9.47;99.13
49341;BME280;35209;51.050;13.678;2023-05-07T06:59:18;100516.59;;;9.42;98.70
49341;BME280;35209;51.050;13.678;2023-05-07T07:04:24;100520.44;;;9.25;100.00
49341;BME280;35209;51.050;13.678;2023-05-07T07:09:34;100518.22;;;9.49;98.61
49341;BME280;35209;51.050;13.678;2023-05-07T07:14:38;100519.13;;;9.46;98.02
49341;BME280;35209;51.050;13.678;2023-05-07T07:19:41;100522.41;;;9.59;97.50
49341;BME280;35209;51.050;13.678;2023-05-07T07:24:44;100539.28;;;9.46;100.00
49341;BME280;35209;51.050;13.678;2023-05-07T07:29:51;100526.19;;;9.44;100.00
49341;BME280;35209;51.050;13.678;2023-05-07T07:34:53;100533.38;;;9.33;99.19
49341;BME280;35209;51.050;13.678;2023-05-07T07:39:55;100535.56;;;9.56;95.21
49341;BME280;35209;51.050;13.678;2023-05-07T07:44:58;100530.41;;;9.53;93.93
49341;BME280;35209;51.050;13.678;2023-05-07T07:50:03;100543.53;;;9.53;93.28
49341;BME280;35209;51.050;13.678;2023-05-07T07:55:05;100548.78;;;9.51;93.50
49341;BME280;35209;51.050;13.678;2023-05-07T08:00:08;100549.53;;;9.58;92.43
49341;BME280;35209;51.050;13.678;2023-05-07T08:05:17;100552.88;;;9.66;92.59
49341;BME280;35209;51.050;13.678;2023-05-07T08:10:19;100556.22;;;9.74;91.10
49341;BME280;35209;51.050;13.678;2023-05-07T08:15:31;100559.91;;;9.64;93.43
49341;BME280;35209;51.050;13.678;2023-05-07T08:20:34;100568.41;;;9.77;92.28
49341;BME280;35209;51.050;13.678;2023-05-07T08:25:49;100570.22;;;9.75;93.26
49341;BME280;35209;51.050;13.678;2023-05-07T08:30:51;100569.91;;;9.90;91.06
49341;BME280;35209;51.050;13.678;2023-05-07T08:35:54;100568.75;;;10.03;91.09
49341;BME280;35209;51.050;13.678;2023-05-07T08:40:56;100562.06;;;10.30;86.74
49341;BME280;35209;51.050;13.678;2023-05-07T08:46:00;100571.91;;;10.19;87.20
49341;BME280;35209;51.050;13.678;2023-05-07T08:51:08;100575.94;;;10.35;88.30
49341;BME280;35209;51.050;13.678;2023-05-07T08:56:11;100577.72;;;10.37;86.55
49341;BME280;35209;51.050;13.678;2023-05-07T09:01:16;100583.50;;;10.51;86.11
49341;BME280;35209;51.050;13.678;2023-05-07T09:06:21;100579.75;;;10.63;83.65
49341;BME280;35209;51.050;13.678;2023-05-07T09:11:24;100585.19;;;10.55;84.42
49341;BME280;35209;51.050;13.678;2023-05-07T09:16:29;100595.72;;;10.11;88.54
49341;BME280;35209;51.050;13.678;2023-05-07T09:21:33;100596.47;;;10.18;89.20
49341;BME280;35209;51.050;13.678;2023-05-07T09:26:39;100597.53;;;10.51;88.01
49341;BME280;35209;51.050;13.678;2023-05-07T09:31:42;100594.28;;;10.77;87.28
49341;BME280;35209;51.050;13.678;2023-05-07T09:36:48;100592.47;;;11.17;82.69
49341;BME280;35209;51.050;13.678;2023-05-07T09:41:50;100591.66;;;10.77;83.71
49341;BME280;35209;51.050;13.678;2023-05-07T09:47:00;100586.63;;;10.68;84.10
49341;BME280;35209;51.050;13.678;2023-05-07T09:52:09;100597.38;;;10.57;85.26
49341;BME280;35209;51.050;13.678;2023-05-07T09:57:19;100599.66;;;10.73;82.98
49341;BME280;35209;51.050;13.678;2023-05-07T10:02:27;100593.50;;;10.74;81.12
49341;BME280;35209;51.050;13.678;2023-05-07T10:07:31;100594.97;;;10.85;81.14
49341;BME280;35209;51.050;13.678;2023-05-07T10:12:40;100603.88;;;11.16;78.02
49341;BME280;35209;51.050;13.678;2023-05-07T10:18:00;100604.66;;;10.83;81.40
49341;BME280;35209;51.050;13.678;2023-05-07T10:23:05;100613.63;;;10.75;84.08
49341;BME280;35209;51.050;13.678;2023-05-07T10:28:15;100604.19;;;11.03;84.14
49341;BME280;35209;51.050;13.678;2023-05-07T10:33:24;100603.06;;;11.14;78.66
49341;BME280;35209;51.050;13.678;2023-05-07T10:38:27;100599.94;;;11.33;79.00
49341;BME280;35209;51.050;13.678;2023-05-07T10:43:40;100604.63;;;11.21;78.65
49341;BME280;35209;51.050;13.678;2023-05-07T10:54:23;100595.69;;;10.92;78.69
49341;BME280;35209;51.050;13.678;2023-05-07T10:59:40;100593.69;;;11.36;78.73
49341;BME280;35209;51.050;13.678;2023-05-07T11:05:26;100593.97;;;11.92;75.83
49341;BME280;35209;51.050;13.678;2023-05-07T11:10:56;100589.97;;;12.38;72.30
49341;BME280;35209;51.050;13.678;2023-05-07T11:16:22;100593.38;;;12.42;70.44
49341;BME280;35209;51.050;13.678;2023-05-07T11:26:48;100587.97;;;11.87;72.82
49341;BME280;35209;51.050;13.678;2023-05-07T11:31:54;100583.16;;;12.01;71.97
49341;BME280;35209;51.050;13.678;2023-05-07T11:36:59;100588.22;;;12.09;71.15
49341;BME280;35209;51.050;13.678;2023-05-07T11:42:35;100587.94;;;12.18;71.57
49341;BME280;35209;51.050;13.678;2023-05-07T11:47:41;100581.34;;;12.61;70.24
49341;BME280;35209;51.050;13.678;2023-05-07T11:52:51;100590.19;;;12.60;68.93
49341;BME280;35209;51.050;13.678;2023-05-07T11:57:53;100587.06;;;12.47;70.40
49341;BME280;35209;51.050;13.678;2023-05-07T12:02:55;100590.81;;;12.40;71.56
49341;BME280;35209;51.050;13.678;2023-05-07T12:07:57;100595.25;;;12.38;71.87
49341;BME280;35209;51.050;13.678;2023-05-07T12:12:59;100582.66;;;12.76;70.54
49341;BME280;35209;51.050;13.678;2023-05-07T12:18:01;100588.81;;;12.75;71.61
49341;BME280;35209;51.050;13.678;2023-05-07T12:23:03;100589.53;;;13.08;68.48
49341;BME280;35209;51.050;13.678;2023-05-07T12:28:07;100605.75;;;12.96;69.90
49341;BME280;35209;51.050;13.678;2023-05-07T12:33:09;100598.13;;;12.86;69.41
49341;BME280;35209;51.050;13.678;2023-05-07T12:38:12;100605.25;;;12.84;71.38
49341;BME280;35209;51.050;13.678;2023-05-07T12:43:18;100600.72;;;12.88;70.15
49341;BME280;35209;51.050;13.678;2023-05-07T12:48:21;100592.63;;;12.94;69.74
49341;BME280;35209;51.050;13.678;2023-05-07T12:53:26;100600.06;;;12.81;69.40
49341;BME280;35209;51.050;13.678;2023-05-07T12:58:30;100600.06;;;12.81;69.61
49341;BME280;35209;51.050;13.678;2023-05-07T13:03:33;100597.97;;;12.91;70.17
49341;BME280;35209;51.050;13.678;2023-05-07T13:08:37;100592.19;;;13.59;69.85
49341;BME280;35209;51.050;13.678;2023-05-07T13:13:41;100591.84;;;13.17;68.93
49341;BME280;35209;51.050;13.678;2023-05-07T13:18:43;100583.56;;;13.29;68.13
49341;BME280;35209;51.050;13.678;2023-05-07T13:23:47;100586.19;;;13.03;70.24
49341;BME280;35209;51.050;13.678;2023-05-07T13:28:49;100581.75;;;13.03;68.23
49341;BME280;35209;51.050;13.678;2023-05-07T13:33:50;100576.97;;;13.14;67.51
49341;BME280;35209;51.050;13.678;2023-05-07T13:38:52;100576.38;;;13.06;68.14
49341;BME280;35209;51.050;13.678;2023-05-07T13:43:54;100569.47;;;13.02;68.51
49341;BME280;35209;51.050;13.678;2023-05-07T13:48:56;100571.03;;;13.08;67.17
49341;BME280;35209;51.050;13.678;2023-05-07T13:53:57;100576.69;;;12.97;67.85
49341;BME280;35209;51.050;13.678;2023-05-07T13:58:59;100573.63;;;13.09;67.34
49341;BME280;35209;51.050;13.678;2023-05-07T14:04:01;100581.22;;;13.19;67.60
49341;BME280;35209;51.050;13.678;2023-05-07T14:09:03;100571.28;;;13.28;66.74
49341;BME280;35209;51.050;13.678;2023-05-07T14:14:05;100569.53;;;13.27;66.47
49341;BME280;35209;51.050;13.678;2023-05-07T14:19:07;100571.06;;;13.34;65.60
49341;BME280;35209;51.050;13.678;2023-05-07T14:24:08;100566.25;;;13.19;66.78
49341;BME280;35209;51.050;13.678;2023-05-07T14:29:11;100568.31;;;13.11;68.05
49341;BME280;35209;51.050;13.678;2023-05-07T14:34:12;100569.94;;;13.15;67.28
49341;BME280;35209;51.050;13.678;2023-05-07T14:39:14;100567.31;;;13.13;67.93
49341;BME280;35209;51.050;13.678;2023-05-07T14:44:16;100560.09;;;13.45;65.55
49341;BME280;35209;51.050;13.678;2023-05-07T14:49:18;100553.94;;;13.46;66.19
49341;BME280;35209;51.050;13.678;2023-05-07T14:54:19;100560.56;;;13.33;64.29
49341;BME280;35209;51.050;13.678;2023-05-07T14:59:21;100564.41;;;13.23;65.41
49341;BME280;35209;51.050;13.678;2023-05-07T15:04:23;100576.22;;;13.11;66.93
49341;BME280;35209;51.050;13.678;2023-05-07T15:09:26;100576.78;;;13.21;67.52
49341;BME280;35209;51.050;13.678;2023-05-07T15:14:27;100582.56;;;13.05;68.60
49341;BME280;35209;51.050;13.678;2023-05-07T15:19:29;100573.78;;;13.05;67.56
49341;BME280;35209;51.050;13.678;2023-05-07T15:24:31;100573.22;;;12.95;68.29
49341;BME280;35209;51.050;13.678;2023-05-07T15:29:33;100581.38;;;12.87;67.41
49341;BME280;35209;51.050;13.678;2023-05-07T15:34:36;100584.00;;;12.61;68.90
49341;BME280;35209;51.050;13.678;2023-05-07T15:39:37;100597.72;;;12.72;69.60
49341;BME280;35209;51.050;13.678;2023-05-07T15:44:39;100600.50;;;12.68;68.95
49341;BME280;35209;51.050;13.678;2023-05-07T15:49:41;100594.84;;;12.80;68.13
49341;BME280;35209;51.050;13.678;2023-05-07T15:54:43;100598.03;;;12.61;68.71
49341;BME280;35209;51.050;13.678;2023-05-07T15:59:45;100606.00;;;12.30;70.86
49341;BME280;35209;51.050;13.678;2023-05-07T16:04:47;100611.63;;;12.20;72.01
49341;BME280;35209;51.050;13.678;2023-05-07T16:09:49;100606.00;;;12.32;71.12
49341;BME280;35209;51.050;13.678;2023-05-07T16:14:51;100601.41;;;12.09;71.13
49341;BME280;35209;51.050;13.678;2023-05-07T16:19:53;100604.25;;;12.01;71.14
49341;BME280;35209;51.050;13.678;2023-05-07T16:24:54;100604.59;;;11.89;72.25
49341;BME280;35209;51.050;13.678;2023-05-07T16:29:56;100599.25;;;11.92;71.39
49341;BME280;35209;51.050;13.678;2023-05-07T16:34:58;100622.59;;;11.72;72.44
49341;BME280;35209;51.050;13.678;2023-05-07T16:40:00;100614.53;;;11.78;72.94
49341;BME280;35209;51.050;13.678;2023-05-07T16:45:02;100611.25;;;11.68;72.64
49341;BME280;35209;51.050;13.678;2023-05-07T16:50:08;100620.19;;;11.62;73.20
49341;BME280;35209;51.050;13.678;2023-05-07T16:55:13;100616.03;;;11.55;72.85
49341;BME280;35209;51.050;13.678;2023-05-07T17:00:18;100614.41;;;11.50;72.60
49341;BME280;35209;51.050;13.678;2023-05-07T17:05:20;100628.41;;;11.50;71.85
49341;BME280;35209;51.050;13.678;2023-05-07T17:10:23;100629.38;;;11.48;72.49
49341;BME280;35209;51.050;13.678;2023-05-07T17:15:26;100632.81;;;11.51;71.70
49341;BME280;35209;51.050;13.678;2023-05-07T17:20:27;100643.44;;;11.13;72.44
49341;BME280;35209;51.050;13.678;2023-05-07T17:25:31;100643.38;;;11.14;72.80
49341;BME280;35209;51.050;13.678;2023-05-07T17:30:32;100647.94;;;11.07;73.81
49341;BME280;35209;51.050;13.678;2023-05-07T17:35:37;100652.91;;;10.82;74.08
49341;BME280;35209;51.050;13.678;2023-05-07T17:40:39;100647.81;;;10.75;75.73
49341;BME280;35209;51.050;13.678;2023-05-07T17:45:44;100657.72;;;10.64;74.99
49341;BME280;35209;51.050;13.678;2023-05-07T17:50:46;100655.84;;;10.69;74.38
49341;BME280;35209;51.050;13.678;2023-05-07T17:55:47;100652.56;;;10.59;75.41
49341;BME280;35209;51.050;13.678;2023-05-07T18:00:52;100662.66;;;10.37;75.69
49341;BME280;35209;51.050;13.678;2023-05-07T18:05:54;100659.19;;;10.37;75.70
49341;BME280;35209;51.050;13.678;2023-05-07T18:10:57;100664.53;;;10.30;76.62
49341;BME280;35209;51.050;13.678;2023-05-07T18:15:58;100686.56;;;10.25;74.88
49341;BME280;35209;51.050;13.678;2023-05-07T18:21:03;100683.13;;;10.20;74.92
49341;BME280;35209;51.050;13.678;2023-05-07T18:26:05;100682.50;;;10.07;74.95
49341;BME280;35209;51.050;13.678;2023-05-07T18:31:09;100684.53;;;9.91;76.04
49341;BME280;35209;51.050;13.678;2023-05-07T18:36:11;100690.72;;;9.87;75.60
49341;BME280;35209;51.050;13.678;2023-05-07T18:41:13;100696.03;;;9.85;76.01
49341;BME280;35209;51.050;13.678;2023-05-07T18:46:15;100704.72;;;9.89;75.79
49341;BME280;35209;51.050;13.678;2023-05-07T18:51:16;100708.53;;;9.71;76.91
49341;BME280;35209;51.050;13.678;2023-05-07T18:56:18;100716.31;;;9.77;76.71
49341;BME280;35209;51.050;13.678;2023-05-07T19:01:22;100719.16;;;9.65;78.10
49341;BME280;35209;51.050;13.678;2023-05-07T19:06:23;100715.63;;;9.66;77.88
49341;BME280;35209;51.050;13.678;2023-05-07T19:11:26;100705.25;;;9.58;77.49
49341;BME280;35209;51.050;13.678;2023-05-07T19:16:28;100715.09;;;9.46;78.44
49341;BME280;35209;51.050;13.678;2023-05-07T19:21:37;100716.03;;;9.43;78.96
49341;BME280;35209;51.050;13.678;2023-05-07T19:27:07;100722.25;;;9.36;79.71
49341;BME280;35209;51.050;13.678;2023-05-07T19:32:09;100725.22;;;9.13;80.95
49341;BME280;35209;51.050;13.678;2023-05-07T19:37:11;100727.66;;;9.27;80.03
49341;BME280;35209;51.050;13.678;2023-05-07T19:42:13;100729.44;;;9.23;78.94
49341;BME280;35209;51.050;13.678;2023-05-07T19:47:15;100736.63;;;9.12;79.74
49341;BME280;35209;51.050;13.678;2023-05-07T19:52:16;100745.47;;;9.02;80.39
49341;BME280;35209;51.050;13.678;2023-05-07T19:57:18;100745.47;;;9.03;80.00
49341;BME280;35209;51.050;13.678;2023-05-07T20:02:20;100756.03;;;8.97;80.94
49341;BME280;35209;51.050;13.678;2023-05-07T20:07:22;100762.97;;;9.01;80.35
49341;BME280;35209;51.050;13.678;2023-05-07T20:12:23;100768.31;;;8.94;79.91
49341;BME280;35209;51.050;13.678;2023-05-07T20:17:25;100774.50;;;8.91;80.24
49341;BME280;35209;51.050;13.678;2023-05-07T20:22:30;100776.44;;;8.77;80.63
49341;BME280;35209;51.050;13.678;2023-05-07T20:27:32;100772.00;;;8.79;79.64
49341;BME280;35209;51.050;13.678;2023-05-07T20:32:35;100784.47;;;8.58;81.28
49341;BME280;35209;51.050;13.678;2023-05-07T20:37:37;100786.06;;;8.72;80.20
49341;BME280;35209;51.050;13.678;2023-05-07T20:42:39;100790.34;;;8.80;79.50
49341;BME280;35209;51.050;13.678;2023-05-07T20:47:43;100799.13;;;8.78;80.38
49341;BME280;35209;51.050;13.678;2023-05-07T20:52:44;100798.13;;;8.88;78.63
49341;BME280;35209;51.050;13.678;2023-05-07T20:57:46;100795.44;;;8.94;77.41
49341;BME280;35209;51.050;13.678;2023-05-07T21:02:48;100795.47;;;8.90;77.77
49341;BME280;35209;51.050;13.678;2023-05-07T21:07:50;100797.28;;;8.86;76.02
49341;BME280;35209;51.050;13.678;2023-05-07T21:12:52;100797.31;;;8.83;76.13
49341;BME280;35209;51.050;13.678;2023-05-07T21:17:53;100796.47;;;8.81;75.79
49341;BME280;35209;51.050;13.678;2023-05-07T21:22:55;100797.44;;;8.71;76.49
49341;BME280;35209;51.050;13.678;2023-05-07T21:27:57;100797.69;;;8.51;77.63
49341;BME280;35209;51.050;13.678;2023-05-07T21:32:59;100810.84;;;8.46;76.97
49341;BME280;35209;51.050;13.678;2023-05-07T21:38:00;100811.78;;;8.39;77.52
49341;BME280;35209;51.050;13.678;2023-05-07T21:43:03;100812.59;;;8.44;77.39
49341;BME280;35209;51.050;13.678;2023-05-07T21:48:06;100812.09;;;8.01;79.73
49341;BME280;35209;51.050;13.678;2023-05-07T21:53:07;100812.97;;;8.03;78.72
49341;BME280;35209;51.050;13.678;2023-05-07T21:58:09;100829.50;;;8.09;78.82
49341;BME280;35209;51.050;13.678;2023-05-07T22:03:11;100825.19;;;8.01;79.72
49341;BME280;35209;51.050;13.678;2023-05-07T22:08:12;100831.34;;;7.98;79.76
49341;BME280;35209;51.050;13.678;2023-05-07T22:13:14;100834.94;;;7.88;80.28
49341;BME280;35209;51.050;13.678;2023-05-07T22:18:17;100821.00;;;7.84;80.35
49341;BME280;35209;51.050;13.678;2023-05-07T22:23:18;100821.91;;;7.80;80.41
49341;BME280;35209;51.050;13.678;2023-05-07T22:28:20;100823.75;;;7.65;82.03
49341;BME280;35209;51.050;13.678;2023-05-07T22:33:22;100815.13;;;7.53;82.91
49341;BME280;35209;51.050;13.678;2023-05-07T22:38:24;100818.69;;;7.40;84.44
49341;BME280;35209;51.050;13.678;2023-05-07T22:43:26;100822.25;;;7.28;85.55
49341;BME280;35209;51.050;13.678;2023-05-07T22:48:28;100816.13;;;7.29;86.03
49341;BME280;35209;51.050;13.678;2023-05-07T22:53:29;100820.41;;;7.44;85.18
49341;BME280;35209;51.050;13.678;2023-05-07T22:58:31;100814.41;;;7.28;87.08
49341;BME280;35209;51.050;13.678;2023-05-07T23:03:33;100807.44;;;7.24;86.79
49341;BME280;35209;51.050;13.678;2023-05-07T23:08:35;100819.56;;;7.39;86.26
49341;BME280;35209;51.050;13.678;2023-05-07T23:13:36;100819.50;;;7.53;85.01
49341;BME280;35209;51.050;13.678;2023-05-07T23:18:39;100814.19;;;7.62;84.21
49341;BME280;35209;51.050;13.678;2023-05-07T23:23:40;100820.16;;;7.81;82.51
49341;BME280;35209;51.050;13.678;2023-05-07T23:28:42;100824.53;;;7.77;82.84
49341;BME280;35209;51.050;13.678;2023-05-07T23:33:44;100816.88;;;7.53;85.04
49341;BME280;35209;51.050;13.678;2023-05-07T23:38:45;100817.81;;;7.44;85.33
49341;BME280;35209;51.050;13.678;2023-05-07T23:43:47;100818.75;;;7.31;84.98
49341;BME280;35209;51.050;13.678;2023-05-07T23:48:49;100823.09;;;7.35;85.08
49341;BME280;35209;51.050;13.678;2023-05-07T23:53:51;100809.22;;;7.16;86.35
49341;BME280;35209;51.050;13.678;2023-05-07T23:58:52;100812.78;;;7.06;86.50
